PWSweather.com
Personal Weather Stations
Station Observations
KNCWHISP3
Whispering Pines, Whispering Pines, NC 28327-9474

Whispering PinesWhispering Pines, NC 28327-9474

Lat: 35.2595427, Lon: -79.39289009999999

Elevation: 355

Station Type: Davis Vantage Pro 2

Latest ConditionsUpdated 4:51:57 PM EDT Monday, Sep 23, 2019
Currently Today's Max Today's Min Today's Average
Temperature 90.0°F32.2°C 90.1°F32.3°C 63.7°F17.6°C 74.9°F23.8°C
Dew Point 63.1°F17.3°C 67.6°F19.8°C 61.3°F16.3°C 63.7°F17.6°C
Winds 2.9 mph W4.7 kmh W 7.2 mph -11.6 kmh - - 1.2 mph 1.9 kmh
Wind Gusts 4.3 mph6.9 kmh 12.8 mph20.6 kmh - -
Humidity 41% 95% 41% 71%
Pressure 29.93 in1013.5 mb 30.13 in1020.3 mb 29.93 in1013.5 mb -
Hour Temp Dew Point Humidity Winds Wind Gusts Pressure Precip Precip Rate Daily Precip Total
04:51 PM 90.0°F32.2°C 63.1°F17.3°C 41% 2.9 mph W4.7 kmh W 4.3 mph6.9 kmh 29.93 in1013.5 mb 0.00 in0.0 mm 0.00 in0.0 mm 0.00 in0.0 mm
04:46 PM 90.0°F32.2°C 63.9°F17.7°C 42% 1.8 mph WSW2.9 kmh WSW 6.3 mph10.1 kmh 29.93 in1013.5 mb 0.00 in0.0 mm 0.00 in0.0 mm 0.00 in0.0 mm
04:41 PM 90.1°F32.3°C 64.6°F18.1°C 43% 2.7 mph SSW4.3 kmh SSW 6.3 mph10.1 kmh 29.93 in1013.5 mb 0.00 in0.0 mm 0.00 in0.0 mm 0.00 in0.0 mm
04:36 PM 90.0°F32.2°C 63.1°F17.3°C 41% 3.4 mph NW5.5 kmh NW 7.4 mph11.9 kmh 29.93 in1013.5 mb 0.00 in0.0 mm 0.00 in0.0 mm 0.00 in0.0 mm
04:31 PM 90.1°F32.3°C 63.3°F17.4°C 41% 3.6 mph SE5.8 kmh SE 7.4 mph11.9 kmh 29.93 in1013.5 mb 0.00 in0.0 mm 0.00 in0.0 mm 0.00 in0.0 mm
04:26 PM 90.0°F32.2°C 64.4°F18.0°C 43% 1.6 mph SW2.6 kmh SW 5.4 mph8.7 kmh 29.93 in1013.5 mb 0.00 in0.0 mm 0.00 in0.0 mm 0.00 in0.0 mm
04:21 PM 89.4°F31.9°C 63.3°F17.4°C 42% 1.8 mph SSE2.9 kmh SSE 6.3 mph10.1 kmh 29.93 in1013.5 mb 0.00 in0.0 mm 0.00 in0.0 mm 0.00 in0.0 mm
04:16 PM 89.1°F31.7°C 64.2°F17.9°C 44% 1.6 mph S2.6 kmh S 6.3 mph10.1 kmh 29.94 in1013.9 mb 0.00 in0.0 mm 0.00 in0.0 mm 0.00 in0.0 mm
04:11 PM 89.1°F31.7°C 63.7°F17.6°C 43% 1.6 mph S2.6 kmh S 7.4 mph11.9 kmh 29.94 in1013.9 mb 0.00 in0.0 mm 0.00 in0.0 mm 0.00 in0.0 mm
04:06 PM 89.1°F31.7°C 63.0°F17.2°C 42% 6.3 mph SSE10.1 kmh SSE 10.5 mph16.9 kmh 29.94 in1013.9 mb 0.00 in0.0 mm 0.00 in0.0 mm 0.00 in0.0 mm
04:01 PM 88.9°F31.6°C 63.5°F17.5°C 43% 4.7 mph S7.6 kmh S 9.6 mph15.4 kmh 29.94 in1013.9 mb 0.00 in0.0 mm 0.00 in0.0 mm 0.00 in0.0 mm
03:56 PM 89.4°F31.9°C 63.3°F17.4°C 42% 3.8 mph SSE6.1 kmh SSE 7.4 mph11.9 kmh 29.94 in1013.9 mb 0.00 in0.0 mm 0.00 in0.0 mm 0.00 in0.0 mm
03:51 PM 89.4°F31.9°C 64.0°F17.8°C 43% 1.8 mph SSE2.9 kmh SSE 5.4 mph8.7 kmh 29.95 in1014.2 mb 0.00 in0.0 mm 0.00 in0.0 mm 0.00 in0.0 mm
03:46 PM 89.8°F32.1°C 63.7°F17.6°C 42% 4.5 mph SE7.2 kmh SE 9.6 mph15.4 kmh 29.95 in1014.2 mb 0.00 in0.0 mm 0.00 in0.0 mm 0.00 in0.0 mm
03:41 PM 89.4°F31.9°C 63.3°F17.4°C 42% 2.0 mph WSW3.2 kmh WSW 7.4 mph11.9 kmh 29.95 in1014.2 mb 0.00 in0.0 mm 0.00 in0.0 mm 0.00 in0.0 mm
03:36 PM 89.4°F31.9°C 64.6°F18.1°C 44% 5.1 mph SE8.2 kmh SE 9.6 mph15.4 kmh 29.95 in1014.2 mb 0.00 in0.0 mm 0.00 in0.0 mm 0.00 in0.0 mm
03:31 PM 89.4°F31.9°C 64.6°F18.1°C 44% 2.2 mph SE3.5 kmh SE 5.4 mph8.7 kmh 29.96 in1014.6 mb 0.00 in0.0 mm 0.00 in0.0 mm 0.00 in0.0 mm
03:26 PM 89.4°F31.9°C 63.3°F17.4°C 42% 4.5 mph S7.2 kmh S 11.6 mph18.7 kmh 29.96 in1014.6 mb 0.00 in0.0 mm 0.00 in0.0 mm 0.00 in0.0 mm
03:21 PM 89.2°F31.8°C 64.4°F18.0°C 44% 6.5 mph SSE10.5 kmh SSE 12.8 mph20.6 kmh 29.96 in1014.6 mb 0.00 in0.0 mm 0.00 in0.0 mm 0.00 in0.0 mm
03:16 PM 89.2°F31.8°C 64.4°F18.0°C 44% 3.6 mph SSW5.8 kmh SSW 8.5 mph13.7 kmh 29.96 in1014.6 mb 0.00 in0.0 mm 0.00 in0.0 mm 0.00 in0.0 mm
03:11 PM 89.2°F31.8°C 63.1°F17.3°C 42% 6.3 mph SSE10.1 kmh SSE 9.6 mph15.4 kmh 29.96 in1014.6 mb 0.00 in0.0 mm 0.00 in0.0 mm 0.00 in0.0 mm
03:06 PM 90.0°F32.2°C 63.9°F17.7°C 42% 2.7 mph SE4.3 kmh SE 5.4 mph8.7 kmh 29.96 in1014.6 mb 0.00 in0.0 mm 0.00 in0.0 mm 0.00 in0.0 mm
03:01 PM 89.2°F31.8°C 63.9°F17.7°C 43% 2.5 mph WSW4.0 kmh WSW 6.3 mph10.1 kmh 29.96 in1014.6 mb 0.00 in0.0 mm 0.00 in0.0 mm 0.00 in0.0 mm
02:56 PM 88.5°F31.4°C 64.4°F18.0°C 45% 7.2 mph SSE11.6 kmh SSE 11.6 mph18.7 kmh 29.96 in1014.6 mb 0.00 in0.0 mm 0.00 in0.0 mm 0.00 in0.0 mm
02:51 PM 88.0°F31.1°C 64.0°F17.8°C 45% 0.7 mph SE1.1 kmh SE 6.3 mph10.1 kmh 29.96 in1014.6 mb 0.00 in0.0 mm 0.00 in0.0 mm 0.00 in0.0 mm
02:46 PM 88.2°F31.2°C 62.8°F17.1°C 43% 3.6 mph SSE5.8 kmh SSE 5.4 mph8.7 kmh 29.96 in1014.6 mb 0.00 in0.0 mm 0.00 in0.0 mm 0.00 in0.0 mm
02:41 PM 88.3°F31.3°C 63.7°F17.6°C 44% 1.8 mph ESE2.9 kmh ESE 4.3 mph6.9 kmh 29.97 in1014.9 mb 0.00 in0.0 mm 0.00 in0.0 mm 0.00 in0.0 mm
02:36 PM 88.2°F31.2°C 62.8°F17.1°C 43% 3.1 mph WNW5.0 kmh WNW 6.3 mph10.1 kmh 29.97 in1014.9 mb 0.00 in0.0 mm 0.00 in0.0 mm 0.00 in0.0 mm
02:31 PM 88.3°F31.3°C 63.0°F17.2°C 43% 2.7 mph SE4.3 kmh SE 5.4 mph8.7 kmh 29.98 in1015.2 mb 0.00 in0.0 mm 0.00 in0.0 mm 0.00 in0.0 mm
02:26 PM 88.2°F31.2°C 63.5°F17.5°C 44% 1.6 mph WSW2.6 kmh WSW 4.3 mph6.9 kmh 29.98 in1015.2 mb 0.00 in0.0 mm 0.00 in0.0 mm 0.00 in0.0 mm
02:21 PM 88.2°F31.2°C 64.2°F17.9°C 45% 2.9 mph SE4.7 kmh SE 5.4 mph8.7 kmh 29.98 in1015.2 mb 0.00 in0.0 mm 0.00 in0.0 mm 0.00 in0.0 mm
02:16 PM 88.3°F31.3°C 63.7°F17.6°C 44% 2.7 mph NNW4.3 kmh NNW 7.4 mph11.9 kmh 29.98 in1015.2 mb 0.00 in0.0 mm 0.00 in0.0 mm 0.00 in0.0 mm
02:11 PM 88.0°F31.1°C 65.3°F18.5°C 47% 2.5 mph NW4.0 kmh NW 5.4 mph8.7 kmh 29.98 in1015.2 mb 0.00 in0.0 mm 0.00 in0.0 mm 0.00 in0.0 mm
02:06 PM 87.4°F30.8°C 64.0°F17.8°C 46% 0.7 mph W1.1 kmh W 3.1 mph5.0 kmh 29.98 in1015.2 mb 0.00 in0.0 mm 0.00 in0.0 mm 0.00 in0.0 mm
02:01 PM 87.3°F30.7°C 64.0°F17.8°C 46% 1.1 mph E1.8 kmh E 7.4 mph11.9 kmh 29.99 in1015.6 mb 0.00 in0.0 mm 0.00 in0.0 mm 0.00 in0.0 mm
01:56 PM 87.1°F30.6°C 64.4°F18.0°C 47% 2.7 mph S4.3 kmh S 5.4 mph8.7 kmh 29.99 in1015.6 mb 0.00 in0.0 mm 0.00 in0.0 mm 0.00 in0.0 mm
01:51 PM 87.1°F30.6°C 64.4°F18.0°C 47% 2.7 mph ENE4.3 kmh ENE 5.4 mph8.7 kmh 29.99 in1015.6 mb 0.00 in0.0 mm 0.00 in0.0 mm 0.00 in0.0 mm
01:46 PM 87.1°F30.6°C 64.9°F18.3°C 48% 1.8 mph SE2.9 kmh SE 5.4 mph8.7 kmh 30.00 in1015.9 mb 0.00 in0.0 mm 0.00 in0.0 mm 0.00 in0.0 mm
01:41 PM 86.5°F30.3°C 64.6°F18.1°C 48% 3.6 mph NW5.8 kmh NW 8.5 mph13.7 kmh 30.00 in1015.9 mb 0.00 in0.0 mm 0.00 in0.0 mm 0.00 in0.0 mm
01:36 PM 86.5°F30.3°C 63.9°F17.7°C 47% 3.8 mph S6.1 kmh S 7.4 mph11.9 kmh 30.00 in1015.9 mb 0.00 in0.0 mm 0.00 in0.0 mm 0.00 in0.0 mm
01:31 PM 86.5°F30.3°C 64.6°F18.1°C 48% 3.4 mph SSE5.5 kmh SSE 6.3 mph10.1 kmh 30.01 in1016.3 mb 0.00 in0.0 mm 0.00 in0.0 mm 0.00 in0.0 mm
01:26 PM 86.7°F30.4°C 64.0°F17.8°C 47% 1.3 mph E2.1 kmh E 4.3 mph6.9 kmh 30.01 in1016.3 mb 0.00 in0.0 mm 0.00 in0.0 mm 0.00 in0.0 mm
01:21 PM 86.7°F30.4°C 63.5°F17.5°C 46% 1.8 mph W2.9 kmh W 4.3 mph6.9 kmh 30.02 in1016.6 mb 0.00 in0.0 mm 0.00 in0.0 mm 0.00 in0.0 mm
01:16 PM 86.5°F30.3°C 64.6°F18.1°C 48% 2.0 mph SSW3.2 kmh SSW 3.1 mph5.0 kmh 30.02 in1016.6 mb 0.00 in0.0 mm 0.00 in0.0 mm 0.00 in0.0 mm
01:11 PM 86.5°F30.3°C 64.6°F18.1°C 48% 0.9 mph W1.4 kmh W 4.3 mph6.9 kmh 30.02 in1016.6 mb 0.00 in0.0 mm 0.00 in0.0 mm 0.00 in0.0 mm
01:06 PM 86.4°F30.2°C 64.9°F18.3°C 49% 3.8 mph W6.1 kmh W 7.4 mph11.9 kmh 30.02 in1016.6 mb 0.00 in0.0 mm 0.00 in0.0 mm 0.00 in0.0 mm
01:01 PM 86.0°F30.0°C 66.4°F19.1°C 52% 1.6 mph ENE2.6 kmh ENE 3.1 mph5.0 kmh 30.03 in1016.9 mb 0.00 in0.0 mm 0.00 in0.0 mm 0.00 in0.0 mm
12:56 PM 85.8°F29.9°C 65.7°F18.7°C 51% 0.9 mph SE1.4 kmh SE 3.1 mph5.0 kmh 30.03 in1016.9 mb 0.00 in0.0 mm 0.00 in0.0 mm 0.00 in0.0 mm
12:51 PM 85.8°F29.9°C 65.7°F18.7°C 51% 2.0 mph SE3.2 kmh SE 4.3 mph6.9 kmh 30.03 in1016.9 mb 0.00 in0.0 mm 0.00 in0.0 mm 0.00 in0.0 mm
12:46 PM 85.6°F29.8°C 64.9°F18.3°C 50% 2.2 mph WSW3.5 kmh WSW 5.4 mph8.7 kmh 30.03 in1016.9 mb 0.00 in0.0 mm 0.00 in0.0 mm 0.00 in0.0 mm
12:41 PM 85.5°F29.7°C 66.9°F19.4°C 54% 1.8 mph W2.9 kmh W 6.3 mph10.1 kmh 30.03 in1016.9 mb 0.00 in0.0 mm 0.00 in0.0 mm 0.00 in0.0 mm
12:36 PM 85.3°F29.6°C 65.7°F18.7°C 52% 2.5 mph WSW4.0 kmh WSW 6.3 mph10.1 kmh 30.04 in1017.3 mb 0.00 in0.0 mm 0.00 in0.0 mm 0.00 in0.0 mm
12:31 PM 84.7°F29.3°C 66.7°F19.3°C 55% 1.1 mph SW1.8 kmh SW 5.4 mph8.7 kmh 30.04 in1017.3 mb 0.00 in0.0 mm 0.00 in0.0 mm 0.00 in0.0 mm
12:26 PM 84.2°F29.0°C 65.7°F18.7°C 54% 2.2 mph WSW3.5 kmh WSW 5.4 mph8.7 kmh 30.05 in1017.6 mb 0.00 in0.0 mm 0.00 in0.0 mm 0.00 in0.0 mm
12:21 PM 83.8°F28.8°C 66.0°F18.9°C 55% 1.6 mph S2.6 kmh S 6.3 mph10.1 kmh 30.05 in1017.6 mb 0.00 in0.0 mm 0.00 in0.0 mm 0.00 in0.0 mm
12:16 PM 83.8°F28.8°C 66.9°F19.4°C 57% 3.6 mph S5.8 kmh S 6.3 mph10.1 kmh 30.05 in1017.6 mb 0.00 in0.0 mm 0.00 in0.0 mm 0.00 in0.0 mm
12:11 PM 83.8°F28.8°C 66.0°F18.9°C 55% 4.9 mph SE7.9 kmh SE 6.3 mph10.1 kmh 30.06 in1017.9 mb 0.00 in0.0 mm 0.00 in0.0 mm 0.00 in0.0 mm
12:06 PM 83.8°F28.8°C 66.4°F19.1°C 56% 1.1 mph S1.8 kmh S 3.1 mph5.0 kmh 30.06 in1017.9 mb 0.00 in0.0 mm 0.00 in0.0 mm 0.00 in0.0 mm
12:01 PM 83.1°F28.4°C 65.8°F18.8°C 56% 1.1 mph SW1.8 kmh SW 7.4 mph11.9 kmh 30.06 in1017.9 mb 0.00 in0.0 mm 0.00 in0.0 mm 0.00 in0.0 mm
11:56 AM 83.3°F28.5°C 66.0°F18.9°C 56% 3.8 mph SSE6.1 kmh SSE 6.3 mph10.1 kmh 30.06 in1017.9 mb 0.00 in0.0 mm 0.00 in0.0 mm 0.00 in0.0 mm
11:51 AM 83.7°F28.7°C 66.7°F19.3°C 57% 2.0 mph SE3.2 kmh SE 4.3 mph6.9 kmh 30.06 in1017.9 mb 0.00 in0.0 mm 0.00 in0.0 mm 0.00 in0.0 mm
11:46 AM 83.7°F28.7°C 66.4°F19.1°C 56% 1.3 mph WSW2.1 kmh WSW 2.0 mph3.2 kmh 30.07 in1018.3 mb 0.00 in0.0 mm 0.00 in0.0 mm 0.00 in0.0 mm
11:41 AM 83.1°F28.4°C 66.4°F19.1°C 57% 1.1 mph WSW1.8 kmh WSW 6.3 mph10.1 kmh 30.07 in1018.3 mb 0.00 in0.0 mm 0.00 in0.0 mm 0.00 in0.0 mm
11:36 AM 82.9°F28.3°C 66.6°F19.2°C 58% 2.0 mph WNW3.2 kmh WNW 4.3 mph6.9 kmh 30.07 in1018.3 mb 0.00 in0.0 mm 0.00 in0.0 mm 0.00 in0.0 mm
11:31 AM 82.6°F28.1°C 65.3°F18.5°C 56% 0.9 mph NW1.4 kmh NW 4.3 mph6.9 kmh 30.08 in1018.6 mb 0.00 in0.0 mm 0.00 in0.0 mm 0.00 in0.0 mm
11:26 AM 82.2°F27.9°C 66.0°F18.9°C 58% 0.4 mph E0.6 kmh E 4.3 mph6.9 kmh 30.08 in1018.6 mb 0.00 in0.0 mm 0.00 in0.0 mm 0.00 in0.0 mm
11:21 AM 82.0°F27.8°C 65.3°F18.5°C 57% 1.8 mph SE2.9 kmh SE 4.3 mph6.9 kmh 30.08 in1018.6 mb 0.00 in0.0 mm 0.00 in0.0 mm 0.00 in0.0 mm
11:16 AM 81.7°F27.6°C 67.5°F19.7°C 62% 1.6 mph S2.6 kmh S 3.1 mph5.0 kmh 30.09 in1019.0 mb 0.00 in0.0 mm 0.00 in0.0 mm 0.00 in0.0 mm
11:11 AM 81.0°F27.2°C 66.2°F19.0°C 61% 1.6 mph WSW2.6 kmh WSW 3.1 mph5.0 kmh 30.09 in1019.0 mb 0.00 in0.0 mm 0.00 in0.0 mm 0.00 in0.0 mm
11:06 AM 80.8°F27.1°C 65.7°F18.7°C 60% 1.6 mph SE2.6 kmh SE 4.3 mph6.9 kmh 30.09 in1019.0 mb 0.00 in0.0 mm 0.00 in0.0 mm 0.00 in0.0 mm
11:01 AM 80.8°F27.1°C 66.6°F19.2°C 62% 2.0 mph WSW3.2 kmh WSW 4.3 mph6.9 kmh 30.09 in1019.0 mb 0.00 in0.0 mm 0.00 in0.0 mm 0.00 in0.0 mm
10:56 AM 80.4°F26.9°C 67.6°F19.8°C 65% 1.1 mph S1.8 kmh S 3.1 mph5.0 kmh 30.09 in1019.0 mb 0.00 in0.0 mm 0.00 in0.0 mm 0.00 in0.0 mm
10:51 AM 80.2°F26.8°C 66.6°F19.2°C 63% 2.9 mph S4.7 kmh S 6.3 mph10.1 kmh 30.09 in1019.0 mb 0.00 in0.0 mm 0.00 in0.0 mm 0.00 in0.0 mm
10:46 AM 79.7°F26.5°C 67.3°F19.6°C 66% 0.9 mph N1.4 kmh N 4.3 mph6.9 kmh 30.09 in1019.0 mb 0.00 in0.0 mm 0.00 in0.0 mm 0.00 in0.0 mm
10:41 AM 79.3°F26.3°C 66.6°F19.2°C 65% 3.8 mph S6.1 kmh S 7.4 mph11.9 kmh 30.09 in1019.0 mb 0.00 in0.0 mm 0.00 in0.0 mm 0.00 in0.0 mm
10:36 AM 79.0°F26.1°C 65.8°F18.8°C 64% 2.5 mph SE4.0 kmh SE 7.4 mph11.9 kmh 30.09 in1019.0 mb 0.00 in0.0 mm 0.00 in0.0 mm 0.00 in0.0 mm
10:31 AM 78.4°F25.8°C 66.6°F19.2°C 67% 2.0 mph SW3.2 kmh SW 3.1 mph5.0 kmh 30.10 in1019.3 mb 0.00 in0.0 mm 0.00 in0.0 mm 0.00 in0.0 mm
10:26 AM 78.1°F25.6°C 67.1°F19.5°C 69% 2.7 mph SW4.3 kmh SW 5.4 mph8.7 kmh 30.10 in1019.3 mb 0.00 in0.0 mm 0.00 in0.0 mm 0.00 in0.0 mm
10:21 AM 78.1°F25.6°C 66.7°F19.3°C 68% 2.0 mph W3.2 kmh W 6.3 mph10.1 kmh 30.10 in1019.3 mb 0.00 in0.0 mm 0.00 in0.0 mm 0.00 in0.0 mm
10:16 AM 78.4°F25.8°C 66.9°F19.4°C 68% 1.8 mph SE2.9 kmh SE 4.3 mph6.9 kmh 30.10 in1019.3 mb 0.00 in0.0 mm 0.00 in0.0 mm 0.00 in0.0 mm
10:11 AM 77.7°F25.4°C 67.1°F19.5°C 70% 1.1 mph W1.8 kmh W 4.3 mph6.9 kmh 30.10 in1019.3 mb 0.00 in0.0 mm 0.00 in0.0 mm 0.00 in0.0 mm
10:06 AM 77.4°F25.2°C 66.7°F19.3°C 70% 2.5 mph SE4.0 kmh SE 4.3 mph6.9 kmh 30.10 in1019.3 mb 0.00 in0.0 mm 0.00 in0.0 mm 0.00 in0.0 mm
10:01 AM 76.8°F24.9°C 67.1°F19.5°C 72% 1.8 mph SW2.9 kmh SW 4.3 mph6.9 kmh 30.11 in1019.6 mb 0.00 in0.0 mm 0.00 in0.0 mm 0.00 in0.0 mm
09:56 AM 76.5°F24.7°C 67.1°F19.5°C 73% 2.5 mph S4.0 kmh S 6.3 mph10.1 kmh 30.10 in1019.3 mb 0.00 in0.0 mm 0.00 in0.0 mm 0.00 in0.0 mm
09:51 AM 76.5°F24.7°C 67.1°F19.5°C 73% 2.7 mph SSW4.3 kmh SSW 5.4 mph8.7 kmh 30.11 in1019.6 mb 0.00 in0.0 mm 0.00 in0.0 mm 0.00 in0.0 mm
09:46 AM 76.6°F24.8°C 66.9°F19.4°C 72% 2.0 mph S3.2 kmh S 4.3 mph6.9 kmh 30.10 in1019.3 mb 0.00 in0.0 mm 0.00 in0.0 mm 0.00 in0.0 mm
09:41 AM 76.5°F24.7°C 67.1°F19.5°C 73% 1.8 mph S2.9 kmh S 4.3 mph6.9 kmh 30.10 in1019.3 mb 0.00 in0.0 mm 0.00 in0.0 mm 0.00 in0.0 mm
09:36 AM 76.1°F24.5°C 66.7°F19.3°C 73% 0.4 mph WNW0.6 kmh WNW 5.4 mph8.7 kmh 30.10 in1019.3 mb 0.00 in0.0 mm 0.00 in0.0 mm 0.00 in0.0 mm
09:31 AM 75.9°F24.4°C 66.6°F19.2°C 73% 2.0 mph W3.2 kmh W 4.3 mph6.9 kmh 30.11 in1019.6 mb 0.00 in0.0 mm 0.00 in0.0 mm 0.00 in0.0 mm
09:26 AM 75.6°F24.2°C 66.7°F19.3°C 74% 0.2 mph S0.3 kmh S 3.1 mph5.0 kmh 30.10 in1019.3 mb 0.00 in0.0 mm 0.00 in0.0 mm 0.00 in0.0 mm
09:21 AM 74.8°F23.8°C 66.4°F19.1°C 75% 1.6 mph WSW2.6 kmh WSW 4.3 mph6.9 kmh 30.10 in1019.3 mb 0.00 in0.0 mm 0.00 in0.0 mm 0.00 in0.0 mm
09:16 AM 74.5°F23.6°C 66.7°F19.3°C 77% 1.8 mph WSW2.9 kmh WSW 3.1 mph5.0 kmh 30.10 in1019.3 mb 0.00 in0.0 mm 0.00 in0.0 mm 0.00 in0.0 mm
09:11 AM 73.6°F23.1°C 66.4°F19.1°C 78% 0.9 mph WSW1.4 kmh WSW 4.3 mph6.9 kmh 30.10 in1019.3 mb 0.00 in0.0 mm 0.00 in0.0 mm 0.00 in0.0 mm
09:06 AM 72.9°F22.7°C 66.4°F19.1°C 80% 1.1 mph WNW1.8 kmh WNW 3.1 mph5.0 kmh 30.11 in1019.6 mb 0.00 in0.0 mm 0.00 in0.0 mm 0.00 in0.0 mm
09:01 AM 72.1°F22.3°C 65.7°F18.7°C 80% 2.7 mph W4.3 kmh W 6.3 mph10.1 kmh 30.10 in1019.3 mb 0.00 in0.0 mm 0.00 in0.0 mm 0.00 in0.0 mm
08:56 AM 71.1°F21.7°C 65.7°F18.7°C 83% 2.2 mph WSW3.5 kmh WSW 4.3 mph6.9 kmh 30.11 in1019.6 mb 0.00 in0.0 mm 0.00 in0.0 mm 0.00 in0.0 mm
08:51 AM 70.0°F21.1°C 65.3°F18.5°C 85% 0.4 mph SSE0.6 kmh SSE 4.3 mph6.9 kmh 30.10 in1019.3 mb 0.00 in0.0 mm 0.00 in0.0 mm 0.00 in0.0 mm
08:46 AM 68.7°F20.4°C 64.9°F18.3°C 88% 1.6 mph WSW2.6 kmh WSW 2.0 mph3.2 kmh 30.10 in1019.3 mb 0.00 in0.0 mm 0.00 in0.0 mm 0.00 in0.0 mm
08:41 AM 67.6°F19.8°C 64.2°F17.9°C 89% 0.7 mph WSW1.1 kmh WSW 2.0 mph3.2 kmh 30.10 in1019.3 mb 0.00 in0.0 mm 0.00 in0.0 mm 0.00 in0.0 mm
08:36 AM 66.7°F19.3°C 64.4°F18.0°C 92% Calm Calm 1.1 mph1.8 kmh 30.10 in1019.3 mb 0.00 in0.0 mm 0.00 in0.0 mm 0.00 in0.0 mm
08:31 AM 66.0°F18.9°C 64.2°F17.9°C 94% Calm Calm 1.1 mph1.8 kmh 30.11 in1019.6 mb 0.00 in0.0 mm 0.00 in0.0 mm 0.00 in0.0 mm
08:26 AM 65.5°F18.6°C 63.7°F17.6°C 94% Calm Calm 1.1 mph1.8 kmh 30.11 in1019.6 mb 0.00 in0.0 mm 0.00 in0.0 mm 0.00 in0.0 mm
08:21 AM 64.9°F18.3°C 63.1°F17.3°C 94% 0.2 mph WSW0.3 kmh WSW 1.1 mph1.8 kmh 30.11 in1019.6 mb 0.00 in0.0 mm 0.00 in0.0 mm 0.00 in0.0 mm
08:16 AM 64.8°F18.2°C 63.0°F17.2°C 94% 0.4 mph WSW0.6 kmh WSW 1.1 mph1.8 kmh 30.11 in1019.6 mb 0.00 in0.0 mm 0.00 in0.0 mm 0.00 in0.0 mm
08:11 AM 64.2°F17.9°C 62.8°F17.1°C 95% 0.4 mph WSW0.6 kmh WSW 2.0 mph3.2 kmh 30.11 in1019.6 mb 0.00 in0.0 mm 0.00 in0.0 mm 0.00 in0.0 mm
08:06 AM 64.0°F17.8°C 62.2°F16.8°C 94% Calm Calm -- 30.11 in1019.6 mb 0.00 in0.0 mm 0.00 in0.0 mm 0.00 in0.0 mm
08:01 AM 63.9°F17.7°C 62.1°F16.7°C 94% Calm Calm -- 30.11 in1019.6 mb 0.00 in0.0 mm 0.00 in0.0 mm 0.00 in0.0 mm
07:56 AM 63.9°F17.7°C 62.1°F16.7°C 94% 0.2 mph WSW0.3 kmh WSW 1.1 mph1.8 kmh 30.11 in1019.6 mb 0.00 in0.0 mm 0.00 in0.0 mm 0.00 in0.0 mm
07:51 AM 63.9°F17.7°C 62.1°F16.7°C 94% 0.7 mph WSW1.1 kmh WSW 2.0 mph3.2 kmh 30.11 in1019.6 mb 0.00 in0.0 mm 0.00 in0.0 mm 0.00 in0.0 mm
07:46 AM 63.7°F17.6°C 61.9°F16.6°C 94% Calm Calm -- 30.11 in1019.6 mb 0.00 in0.0 mm 0.00 in0.0 mm 0.00 in0.0 mm
07:41 AM 63.7°F17.6°C 61.7°F16.5°C 93% Calm Calm -- 30.10 in1019.3 mb 0.00 in0.0 mm 0.00 in0.0 mm 0.00 in0.0 mm
07:36 AM 63.7°F17.6°C 61.7°F16.5°C 93% Calm Calm -- 30.10 in1019.3 mb 0.00 in0.0 mm 0.00 in0.0 mm 0.00 in0.0 mm
07:31 AM 63.7°F17.6°C 61.7°F16.5°C 93% Calm Calm -- 30.10 in1019.3 mb 0.00 in0.0 mm 0.00 in0.0 mm 0.00 in0.0 mm
07:26 AM 63.7°F17.6°C 61.7°F16.5°C 93% Calm Calm -- 30.10 in1019.3 mb 0.00 in0.0 mm 0.00 in0.0 mm 0.00 in0.0 mm
07:21 AM 63.7°F17.6°C 61.7°F16.5°C 93% Calm Calm -- 30.10 in1019.3 mb 0.00 in0.0 mm 0.00 in0.0 mm 0.00 in0.0 mm
07:16 AM 63.7°F17.6°C 61.3°F16.3°C 92% Calm Calm -- 30.10 in1019.3 mb 0.00 in0.0 mm 0.00 in0.0 mm 0.00 in0.0 mm
07:11 AM 63.7°F17.6°C 61.7°F16.5°C 93% Calm Calm 1.1 mph1.8 kmh 30.10 in1019.3 mb 0.00 in0.0 mm 0.00 in0.0 mm 0.00 in0.0 mm
07:06 AM 63.7°F17.6°C 61.7°F16.5°C 93% 0.2 mph WSW0.3 kmh WSW 1.1 mph1.8 kmh 30.10 in1019.3 mb 0.00 in0.0 mm 0.00 in0.0 mm 0.00 in0.0 mm
07:01 AM 63.9°F17.7°C 61.5°F16.4°C 92% Calm Calm -- 30.10 in1019.3 mb 0.00 in0.0 mm 0.00 in0.0 mm 0.00 in0.0 mm
06:56 AM 63.7°F17.6°C 61.3°F16.3°C 92% Calm Calm -- 30.10 in1019.3 mb 0.00 in0.0 mm 0.00 in0.0 mm 0.00 in0.0 mm
06:51 AM 63.9°F17.7°C 61.5°F16.4°C 92% Calm Calm -- 30.10 in1019.3 mb 0.00 in0.0 mm 0.00 in0.0 mm 0.00 in0.0 mm
06:46 AM 64.0°F17.8°C 61.7°F16.5°C 92% Calm Calm -- 30.10 in1019.3 mb 0.00 in0.0 mm 0.00 in0.0 mm 0.00 in0.0 mm
06:41 AM 64.0°F17.8°C 61.7°F16.5°C 92% Calm Calm -- 30.10 in1019.3 mb 0.00 in0.0 mm 0.00 in0.0 mm 0.00 in0.0 mm
06:36 AM 64.0°F17.8°C 61.7°F16.5°C 92% Calm Calm -- 30.10 in1019.3 mb 0.00 in0.0 mm 0.00 in0.0 mm 0.00 in0.0 mm
06:31 AM 64.2°F17.9°C 61.5°F16.4°C 91% Calm Calm -- 30.10 in1019.3 mb 0.00 in0.0 mm 0.00 in0.0 mm 0.00 in0.0 mm
06:26 AM 64.2°F17.9°C 61.9°F16.6°C 92% Calm Calm -- 30.10 in1019.3 mb 0.00 in0.0 mm 0.00 in0.0 mm 0.00 in0.0 mm
06:21 AM 64.2°F17.9°C 61.9°F16.6°C 92% Calm Calm -- 30.10 in1019.3 mb 0.00 in0.0 mm 0.00 in0.0 mm 0.00 in0.0 mm
06:16 AM 64.4°F18.0°C 61.7°F16.5°C 91% Calm Calm -- 30.09 in1019.0 mb 0.00 in0.0 mm 0.00 in0.0 mm 0.00 in0.0 mm
06:11 AM 64.4°F18.0°C 61.7°F16.5°C 91% Calm Calm -- 30.09 in1019.0 mb 0.00 in0.0 mm 0.00 in0.0 mm 0.00 in0.0 mm
06:06 AM 64.6°F18.1°C 61.9°F16.6°C 91% Calm Calm -- 30.09 in1019.0 mb 0.00 in0.0 mm 0.00 in0.0 mm 0.00 in0.0 mm
06:01 AM 64.6°F18.1°C 61.9°F16.6°C 91% Calm Calm -- 30.09 in1019.0 mb 0.00 in0.0 mm 0.00 in0.0 mm 0.00 in0.0 mm
05:56 AM 64.8°F18.2°C 61.7°F16.5°C 90% Calm Calm -- 30.09 in1019.0 mb 0.00 in0.0 mm 0.00 in0.0 mm 0.00 in0.0 mm
05:51 AM 64.8°F18.2°C 62.1°F16.7°C 91% Calm Calm -- 30.09 in1019.0 mb 0.00 in0.0 mm 0.00 in0.0 mm 0.00 in0.0 mm
05:46 AM 64.9°F18.3°C 61.9°F16.6°C 90% Calm Calm -- 30.09 in1019.0 mb 0.00 in0.0 mm 0.00 in0.0 mm 0.00 in0.0 mm
05:41 AM 64.9°F18.3°C 61.7°F16.5°C 89% Calm Calm -- 30.09 in1019.0 mb 0.00 in0.0 mm 0.00 in0.0 mm 0.00 in0.0 mm
05:36 AM 65.1°F18.4°C 61.9°F16.6°C 89% Calm Calm 1.1 mph1.8 kmh 30.09 in1019.0 mb 0.00 in0.0 mm 0.00 in0.0 mm 0.00 in0.0 mm
05:31 AM 65.1°F18.4°C 61.9°F16.6°C 89% Calm Calm 1.1 mph1.8 kmh 30.09 in1019.0 mb 0.00 in0.0 mm 0.00 in0.0 mm 0.00 in0.0 mm
05:26 AM 65.1°F18.4°C 61.9°F16.6°C 89% Calm Calm -- 30.09 in1019.0 mb 0.00 in0.0 mm 0.00 in0.0 mm 0.00 in0.0 mm
05:21 AM 65.1°F18.4°C 61.9°F16.6°C 89% Calm Calm -- 30.09 in1019.0 mb 0.00 in0.0 mm 0.00 in0.0 mm 0.00 in0.0 mm
05:16 AM 65.1°F18.4°C 61.9°F16.6°C 89% Calm Calm -- 30.09 in1019.0 mb 0.00 in0.0 mm 0.00 in0.0 mm 0.00 in0.0 mm
05:11 AM 64.9°F18.3°C 61.7°F16.5°C 89% Calm Calm -- 30.09 in1019.0 mb 0.00 in0.0 mm 0.00 in0.0 mm 0.00 in0.0 mm
05:06 AM 64.9°F18.3°C 61.7°F16.5°C 89% Calm Calm -- 30.09 in1019.0 mb 0.00 in0.0 mm 0.00 in0.0 mm 0.00 in0.0 mm
05:01 AM 64.9°F18.3°C 61.9°F16.6°C 90% Calm Calm -- 30.09 in1019.0 mb 0.00 in0.0 mm 0.00 in0.0 mm 0.00 in0.0 mm
04:56 AM 64.8°F18.2°C 61.7°F16.5°C 90% Calm Calm -- 30.09 in1019.0 mb 0.00 in0.0 mm 0.00 in0.0 mm 0.00 in0.0 mm
04:51 AM 64.9°F18.3°C 61.9°F16.6°C 90% Calm Calm 1.1 mph1.8 kmh 30.09 in1019.0 mb 0.00 in0.0 mm 0.00 in0.0 mm 0.00 in0.0 mm
04:46 AM 64.9°F18.3°C 61.7°F16.5°C 89% Calm Calm 1.1 mph1.8 kmh 30.09 in1019.0 mb 0.00 in0.0 mm 0.00 in0.0 mm 0.00 in0.0 mm
04:41 AM 64.9°F18.3°C 61.3°F16.3°C 88% Calm Calm -- 30.09 in1019.0 mb 0.00 in0.0 mm 0.00 in0.0 mm 0.00 in0.0 mm
04:36 AM 64.9°F18.3°C 61.3°F16.3°C 88% Calm Calm -- 30.09 in1019.0 mb 0.00 in0.0 mm 0.00 in0.0 mm 0.00 in0.0 mm
04:31 AM 64.9°F18.3°C 61.7°F16.5°C 89% Calm Calm -- 30.10 in1019.3 mb 0.00 in0.0 mm 0.00 in0.0 mm 0.00 in0.0 mm
04:26 AM 64.9°F18.3°C 61.7°F16.5°C 89% Calm Calm -- 30.09 in1019.0 mb 0.00 in0.0 mm 0.00 in0.0 mm 0.00 in0.0 mm
04:21 AM 64.9°F18.3°C 61.7°F16.5°C 89% Calm Calm -- 30.09 in1019.0 mb 0.00 in0.0 mm 0.00 in0.0 mm 0.00 in0.0 mm
04:16 AM 64.9°F18.3°C 61.7°F16.5°C 89% Calm Calm -- 30.09 in1019.0 mb 0.00 in0.0 mm 0.00 in0.0 mm 0.00 in0.0 mm
04:11 AM 64.9°F18.3°C 61.7°F16.5°C 89% Calm Calm -- 30.09 in1019.0 mb 0.00 in0.0 mm 0.00 in0.0 mm 0.00 in0.0 mm
04:06 AM 65.1°F18.4°C 61.9°F16.6°C 89% Calm Calm 1.1 mph1.8 kmh 30.09 in1019.0 mb 0.00 in0.0 mm 0.00 in0.0 mm 0.00 in0.0 mm
04:01 AM 65.1°F18.4°C 61.9°F16.6°C 89% Calm Calm -- 30.10 in1019.3 mb 0.00 in0.0 mm 0.00 in0.0 mm 0.00 in0.0 mm
03:56 AM 65.1°F18.4°C 61.9°F16.6°C 89% Calm Calm -- 30.09 in1019.0 mb 0.00 in0.0 mm 0.00 in0.0 mm 0.00 in0.0 mm
03:51 AM 65.5°F18.6°C 62.2°F16.8°C 89% Calm Calm -- 30.09 in1019.0 mb 0.00 in0.0 mm 0.00 in0.0 mm 0.00 in0.0 mm
03:46 AM 65.5°F18.6°C 62.2°F16.8°C 89% Calm Calm -- 30.10 in1019.3 mb 0.00 in0.0 mm 0.00 in0.0 mm 0.00 in0.0 mm
03:41 AM 65.7°F18.7°C 62.1°F16.7°C 88% Calm Calm -- 30.10 in1019.3 mb 0.00 in0.0 mm 0.00 in0.0 mm 0.00 in0.0 mm
03:36 AM 65.8°F18.8°C 62.2°F16.8°C 88% Calm Calm 1.1 mph1.8 kmh 30.10 in1019.3 mb 0.00 in0.0 mm 0.00 in0.0 mm 0.00 in0.0 mm
03:31 AM 65.8°F18.8°C 62.2°F16.8°C 88% 0.2 mph WSW0.3 kmh WSW 1.1 mph1.8 kmh 30.10 in1019.3 mb 0.00 in0.0 mm 0.00 in0.0 mm 0.00 in0.0 mm
03:26 AM 65.8°F18.8°C 61.9°F16.6°C 87% Calm Calm -- 30.11 in1019.6 mb 0.00 in0.0 mm 0.00 in0.0 mm 0.00 in0.0 mm
03:21 AM 66.0°F18.9°C 61.7°F16.5°C 86% Calm Calm 1.1 mph1.8 kmh 30.11 in1019.6 mb 0.00 in0.0 mm 0.00 in0.0 mm 0.00 in0.0 mm
03:16 AM 66.0°F18.9°C 61.7°F16.5°C 86% Calm Calm 1.1 mph1.8 kmh 30.10 in1019.3 mb 0.00 in0.0 mm 0.00 in0.0 mm 0.00 in0.0 mm
03:11 AM 66.2°F19.0°C 61.9°F16.6°C 86% Calm Calm 1.1 mph1.8 kmh 30.11 in1019.6 mb 0.00 in0.0 mm 0.00 in0.0 mm 0.00 in0.0 mm
03:06 AM 66.4°F19.1°C 62.4°F16.9°C 87% Calm Calm -- 30.11 in1019.6 mb 0.00 in0.0 mm 0.00 in0.0 mm 0.00 in0.0 mm
03:01 AM 66.6°F19.2°C 62.6°F17.0°C 87% Calm Calm -- 30.11 in1019.6 mb 0.00 in0.0 mm 0.00 in0.0 mm 0.00 in0.0 mm
02:56 AM 66.7°F19.3°C 62.4°F16.9°C 86% 0.2 mph WSW0.3 kmh WSW 1.1 mph1.8 kmh 30.11 in1019.6 mb 0.00 in0.0 mm 0.00 in0.0 mm 0.00 in0.0 mm
02:51 AM 66.9°F19.4°C 62.6°F17.0°C 86% Calm Calm -- 30.11 in1019.6 mb 0.00 in0.0 mm 0.00 in0.0 mm 0.00 in0.0 mm
02:46 AM 67.3°F19.6°C 62.6°F17.0°C 85% Calm Calm 1.1 mph1.8 kmh 30.11 in1019.6 mb 0.00 in0.0 mm 0.00 in0.0 mm 0.00 in0.0 mm
02:41 AM 67.5°F19.7°C 62.8°F17.1°C 85% Calm Calm 1.1 mph1.8 kmh 30.11 in1019.6 mb 0.00 in0.0 mm 0.00 in0.0 mm 0.00 in0.0 mm
02:36 AM 67.6°F19.8°C 63.0°F17.2°C 85% 0.2 mph WSW0.3 kmh WSW 1.1 mph1.8 kmh 30.11 in1019.6 mb 0.00 in0.0 mm 0.00 in0.0 mm 0.00 in0.0 mm
02:31 AM 67.8°F19.9°C 62.4°F16.9°C 83% Calm Calm -- 30.11 in1019.6 mb 0.00 in0.0 mm 0.00 in0.0 mm 0.00 in0.0 mm
02:26 AM 68.2°F20.1°C 62.8°F17.1°C 83% Calm Calm -- 30.11 in1019.6 mb 0.00 in0.0 mm 0.00 in0.0 mm 0.00 in0.0 mm
02:21 AM 68.4°F20.2°C 62.6°F17.0°C 82% Calm Calm -- 30.11 in1019.6 mb 0.00 in0.0 mm 0.00 in0.0 mm 0.00 in0.0 mm
02:16 AM 68.7°F20.4°C 63.0°F17.2°C 82% 0.4 mph WSW0.6 kmh WSW 2.0 mph3.2 kmh 30.11 in1019.6 mb 0.00 in0.0 mm 0.00 in0.0 mm 0.00 in0.0 mm
02:11 AM 69.1°F20.6°C 63.0°F17.2°C 81% 0.9 mph WSW1.4 kmh WSW 2.0 mph3.2 kmh 30.11 in1019.6 mb 0.00 in0.0 mm 0.00 in0.0 mm 0.00 in0.0 mm
02:06 AM 69.3°F20.7°C 62.4°F16.9°C 79% 0.2 mph WSW0.3 kmh WSW 1.1 mph1.8 kmh 30.11 in1019.6 mb 0.00 in0.0 mm 0.00 in0.0 mm 0.00 in0.0 mm
02:01 AM 69.4°F20.8°C 62.6°F17.0°C 79% 0.4 mph WSW0.6 kmh WSW 2.0 mph3.2 kmh 30.11 in1019.6 mb 0.00 in0.0 mm 0.00 in0.0 mm 0.00 in0.0 mm
01:56 AM 69.4°F20.8°C 62.6°F17.0°C 79% Calm Calm 2.0 mph3.2 kmh 30.12 in1020.0 mb 0.00 in0.0 mm 0.00 in0.0 mm 0.00 in0.0 mm
01:51 AM 69.6°F20.9°C 62.4°F16.9°C 78% 0.7 mph WSW1.1 kmh WSW 3.1 mph5.0 kmh 30.12 in1020.0 mb 0.00 in0.0 mm 0.00 in0.0 mm 0.00 in0.0 mm
01:46 AM 69.6°F20.9°C 62.4°F16.9°C 78% 0.2 mph WSW0.3 kmh WSW 1.1 mph1.8 kmh 30.12 in1020.0 mb 0.00 in0.0 mm 0.00 in0.0 mm 0.00 in0.0 mm
01:41 AM 69.8°F21.0°C 62.2°F16.8°C 77% Calm Calm 1.1 mph1.8 kmh 30.11 in1019.6 mb 0.00 in0.0 mm 0.00 in0.0 mm 0.00 in0.0 mm
01:36 AM 70.0°F21.1°C 62.4°F16.9°C 77% Calm Calm 1.1 mph1.8 kmh 30.12 in1020.0 mb 0.00 in0.0 mm 0.00 in0.0 mm 0.00 in0.0 mm
01:31 AM 70.2°F21.2°C 62.6°F17.0°C 77% Calm Calm 1.1 mph1.8 kmh 30.12 in1020.0 mb 0.00 in0.0 mm 0.00 in0.0 mm 0.00 in0.0 mm
01:26 AM 70.3°F21.3°C 62.4°F16.9°C 76% Calm Calm -- 30.12 in1020.0 mb 0.00 in0.0 mm 0.00 in0.0 mm 0.00 in0.0 mm
01:21 AM 70.5°F21.4°C 63.0°F17.2°C 77% Calm Calm 1.1 mph1.8 kmh 30.12 in1020.0 mb 0.00 in0.0 mm 0.00 in0.0 mm 0.00 in0.0 mm
01:16 AM 70.7°F21.5°C 63.1°F17.3°C 77% Calm Calm 1.1 mph1.8 kmh 30.12 in1020.0 mb 0.00 in0.0 mm 0.00 in0.0 mm 0.00 in0.0 mm
01:11 AM 70.9°F21.6°C 63.0°F17.2°C 76% Calm Calm -- 30.12 in1020.0 mb 0.00 in0.0 mm 0.00 in0.0 mm 0.00 in0.0 mm
01:06 AM 71.1°F21.7°C 62.8°F17.1°C 75% 0.2 mph WSW0.3 kmh WSW 1.1 mph1.8 kmh 30.13 in1020.3 mb 0.00 in0.0 mm 0.00 in0.0 mm 0.00 in0.0 mm
01:01 AM 71.1°F21.7°C 62.8°F17.1°C 75% Calm Calm 2.0 mph3.2 kmh 30.13 in1020.3 mb 0.00 in0.0 mm 0.00 in0.0 mm 0.00 in0.0 mm
12:56 AM 71.2°F21.8°C 63.0°F17.2°C 75% Calm Calm 1.1 mph1.8 kmh 30.13 in1020.3 mb 0.00 in0.0 mm 0.00 in0.0 mm 0.00 in0.0 mm
12:51 AM 71.4°F21.9°C 63.1°F17.3°C 75% 0.2 mph W0.3 kmh W 2.0 mph3.2 kmh 30.13 in1020.3 mb 0.00 in0.0 mm 0.00 in0.0 mm 0.00 in0.0 mm
12:46 AM 71.4°F21.9°C 63.1°F17.3°C 75% Calm Calm 3.1 mph5.0 kmh 30.13 in1020.3 mb 0.00 in0.0 mm 0.00 in0.0 mm 0.00 in0.0 mm
12:41 AM 71.6°F22.0°C 63.7°F17.6°C 76% 1.1 mph S1.8 kmh S 3.1 mph5.0 kmh 30.13 in1020.3 mb 0.00 in0.0 mm 0.00 in0.0 mm 0.00 in0.0 mm
12:36 AM 71.8°F22.1°C 63.0°F17.2°C 74% Calm Calm 1.1 mph1.8 kmh 30.13 in1020.3 mb 0.00 in0.0 mm 0.00 in0.0 mm 0.00 in0.0 mm
12:31 AM 72.0°F22.2°C 63.1°F17.3°C 74% Calm Calm 2.0 mph3.2 kmh 30.13 in1020.3 mb 0.00 in0.0 mm 0.00 in0.0 mm 0.00 in0.0 mm
12:26 AM 72.1°F22.3°C 63.3°F17.4°C 74% Calm Calm 1.1 mph1.8 kmh 30.13 in1020.3 mb 0.00 in0.0 mm 0.00 in0.0 mm 0.00 in0.0 mm
12:21 AM 72.1°F22.3°C 63.3°F17.4°C 74% 0.7 mph WSW1.1 kmh WSW 2.0 mph3.2 kmh 30.13 in1020.3 mb 0.00 in0.0 mm 0.00 in0.0 mm 0.00 in0.0 mm
12:16 AM 72.3°F22.4°C 63.1°F17.3°C 73% 0.7 mph W1.1 kmh W 3.1 mph5.0 kmh 30.13 in1020.3 mb 0.00 in0.0 mm 0.00 in0.0 mm 0.00 in0.0 mm
12:11 AM 72.3°F22.4°C 63.5°F17.5°C 74% Calm Calm 1.1 mph1.8 kmh 30.13 in1020.3 mb 0.00 in0.0 mm 0.00 in0.0 mm 0.00 in0.0 mm
12:06 AM 72.7°F22.6°C 63.5°F17.5°C 73% 0.9 mph WNW1.4 kmh WNW 2.0 mph3.2 kmh 30.13 in1020.3 mb 0.00 in0.0 mm 0.00 in0.0 mm 0.00 in0.0 mm
12:01 AM 72.9°F22.7°C 63.7°F17.6°C 73% Calm Calm 2.0 mph3.2 kmh 30.13 in1020.3 mb 0.00 in0.0 mm 0.00 in0.0 mm 0.00 in0.0 mm